MV Grace — WDH5978 — position and weather

sailwx.info

Track history (hours):
 
Tides and Currents Weather Stations Pressure Air Temp Water Temp Dewpoint Dewpoint Depression Visibility Wind Speed Wind Dir Waves Ship Positions

MV Grace

Owner: MV Cajun 3, LLC, New Orleans, LA. More information available from US FCC via Universal Licensing System and Coast Guard Vessel Documentation Center.

Last reported at 2017-Sep-20 00:31 UTC. Time now 2017-Sep-25 13:34 UTC.
Position N 29°30' W 094°52'.

Length 107 m; draft 3 m.

Type: . MMSI: 367633410.

Date/timePositionNaut miles runAvg speedWind from/ knotsBaromVisibWave heightAir tempDewpointWater temp
2017-Sep-20 00:31N 29°30' W 094°52'0 6.7
2017-Sep-20 00:28N 29°30' W 094°52'3 6.7
2017-Sep-20 00:00N 29°33' W 094°54'3 6.6
2017-Sep-19 23:30N 29°35' W 094°56'3 6.6
2017-Sep-19 23:00N 29°38' W 094°58'3 6.5
2017-Sep-19 22:31N 29°41' W 094°59'3 5.2
2017-Sep-19 21:58N 29°44' W 095°01'4 5.9
2017-Sep-19 21:20N 29°46' W 095°05'1 1.6
2017-Sep-19 20:27N 29°47' W 095°06'0 0.0
2017-Sep-18 19:18N 29°47' W 095°06'0 0.0
2017-Sep-18 17:29N 29°47' W 095°06'1 1.3
2017-Sep-18 16:28N 29°46' W 095°05'4 6.5
2017-Sep-18 15:56N 29°44' W 095°08'3 6.5
2017-Sep-18 15:30N 29°45' W 095°11'3 6.0
2017-Sep-18 14:58N 29°43' W 095°14'0 0.1
2017-Sep-18 14:31N 29°43' W 095°14'2 4.5
2017-Sep-18 13:59N 29°44' W 095°12'3 6.1
2017-Sep-18 13:30N 29°44' W 095°09'3 6.2
2017-Sep-18 13:00N 29°46' W 095°06'2 0.0
2017-Sep-17 02:17N 29°47' W 095°06'0 0.6
2017-Sep-17 02:00N 29°47' W 095°06'1 1.8
2017-Sep-17 01:28N 29°47' W 095°05'1 1.0
2017-Sep-17 00:27N 29°46' W 095°06'1 1.8
2017-Sep-16 23:49N 29°47' W 095°06'0 0.0
2017-Sep-16 08:21N 29°47' W 095°06'0 0.2
2017-Sep-16 07:59N 29°47' W 095°06'1 1.8
2017-Sep-16 07:28N 29°47' W 095°05'1 1.5
2017-Sep-16 06:55N 29°46' W 095°05'2 4.4
2017-Sep-16 06:25N 29°45' W 095°06'2 5.5
2017-Sep-16 06:00N 29°44' W 095°09'3 5.1
2017-Sep-16 05:28N 29°45' W 095°12'2 4.3
2017-Sep-16 04:59N 29°44' W 095°14'0 0.1
2017-Sep-16 04:30N 29°44' W 095°14'0 0.0
2017-Sep-16 04:00N 29°44' W 095°14'0 0.0
2017-Sep-16 03:30N 29°44' W 095°14'0 0.0
2017-Sep-16 03:00N 29°44' W 095°14'0 0.0
2017-Sep-16 02:30N 29°44' W 095°14'0 0.0
2017-Sep-16 02:00N 29°44' W 095°14'0 0.0
2017-Sep-16 01:30N 29°44' W 095°14'0 0.0
2017-Sep-16 01:00N 29°44' W 095°14'0 0.0
2017-Sep-16 00:29N 29°44' W 095°14'0 0.0
2017-Sep-16 00:00N 29°44' W 095°14'0 0.0
2017-Sep-15 23:30N 29°44' W 095°14'0 0.0
2017-Sep-15 23:00N 29°44' W 095°14'0 0.0
2017-Sep-15 22:30N 29°44' W 095°14'0 0.0
2017-Sep-15 22:00N 29°44' W 095°14'0 0.0
2017-Sep-15 21:30N 29°44' W 095°14'0 0.0
2017-Sep-15 21:00N 29°44' W 095°14'0 0.0
2017-Sep-15 20:30N 29°44' W 095°14'0 0.0
2017-Sep-15 20:00N 29°44' W 095°14'0 0.0
2017-Sep-15 19:28N 29°44' W 095°14'0 0.0
2017-Sep-15 19:00N 29°44' W 095°14'0 0.0
2017-Sep-15 18:30N 29°44' W 095°14'0 0.3
2017-Sep-15 17:25N 29°44' W 095°13'0 0.9
2017-Sep-15 17:00N 29°44' W 095°14'0 0.0
2017-Sep-15 16:30N 29°44' W 095°14'0 0.0
2017-Sep-15 16:00N 29°44' W 095°14'0 0.0
2017-Sep-15 15:28N 29°44' W 095°14'0 0.0
2017-Sep-15 14:57N 29°44' W 095°14'0 0.0
2017-Sep-15 14:28N 29°44' W 095°14'0 0.0
2017-Sep-15 14:00N 29°44' W 095°14'0 0.0
2017-Sep-15 13:30N 29°44' W 095°14'0 0.0
2017-Sep-15 12:59N 29°44' W 095°14'0 0.0
2017-Sep-15 12:30N 29°44' W 095°14'0 0.0
2017-Sep-15 12:00N 29°44' W 095°14'0 0.0
2017-Sep-15 11:30N 29°44' W 095°14'0 0.0
2017-Sep-15 10:57N 29°44' W 095°14'0 0.0
2017-Sep-15 10:30N 29°44' W 095°14'0 0.0
2017-Sep-15 10:00N 29°44' W 095°14'0 0.0
2017-Sep-15 09:30N 29°44' W 095°14'0 0.0
2017-Sep-15 09:00N 29°44' W 095°14'0 0.0
2017-Sep-15 08:30N 29°44' W 095°14'0 0.0
2017-Sep-15 08:00N 29°44' W 095°14'0 0.0
2017-Sep-15 07:30N 29°44' W 095°14'0 0.0
2017-Sep-15 07:00N 29°44' W 095°14'0 0.0
2017-Sep-15 06:30N 29°44' W 095°14'0 0.0
2017-Sep-15 06:00N 29°44' W 095°14'0 0.0
2017-Sep-15 05:30N 29°44' W 095°14'0 0.0
2017-Sep-15 05:00N 29°44' W 095°14'0 0.0
2017-Sep-15 04:29N 29°44' W 095°14'0 0.0
2017-Sep-15 04:00N 29°44' W 095°14'0 0.0
2017-Sep-15 03:30N 29°44' W 095°14'0 0.0
2017-Sep-15 03:00N 29°44' W 095°14'0 0.0
2017-Sep-15 02:30N 29°44' W 095°14'0 0.0
2017-Sep-15 02:00N 29°44' W 095°14'0 0.0
2017-Sep-15 01:30N 29°44' W 095°14'0 0.0
2017-Sep-15 01:00N 29°44' W 095°14'0 0.0
2017-Sep-14 23:31N 29°44' W 095°14'0 0.0
2017-Sep-14 23:05N 29°44' W 095°14'0 0.3
2017-Sep-14 23:00N 29°44' W 095°14'2 2.4
2017-Sep-14 22:15N 29°44' W 095°12'1 5.0
2017-Sep-14 22:00N 29°45' W 095°11'2 3.9
2017-Sep-14 21:30N 29°44' W 095°09'3 5.6
2017-Sep-14 21:00N 29°45' W 095°06'1 2.9
2017-Sep-14 20:30N 29°45' W 095°04'3 5.1
2017-Sep-14 20:00N 29°44' W 095°02'3 5.1
2017-Sep-14 19:30N 29°42' W 094°60'3 5.9
2017-Sep-14 19:00N 29°39' W 094°58'3 6.5
2017-Sep-14 18:30N 29°36' W 094°57'4 7.4
2017-Sep-14 18:00N 29°33' W 094°55'3 6.6
2017-Sep-14 17:30N 29°30' W 094°52'4 6.4
2017-Sep-14 16:56N 29°27' W 094°51'  
2017-Sep-10 09:32N 30°01' W 093°45'0 7.0
2017-Sep-10 09:29N 30°02' W 093°44'3 5.7
2017-Sep-10 09:00N 30°03' W 093°42'2 4.2
2017-Sep-10 08:30N 30°04' W 093°40'2 4.1
2017-Sep-10 07:58N 30°04' W 093°37'2 3.6
2017-Sep-10 07:31N 30°04' W 093°35'1 2.4
2017-Sep-10 07:00N 30°04' W 093°34'1 1.4
2017-Sep-10 06:31N 30°04' W 093°33'1 3.0
2017-Sep-10 06:01N 30°04' W 093°31'2 3.9
2017-Sep-10 05:29N 30°04' W 093°29'2 3.2
2017-Sep-10 05:00N 30°04' W 093°27'2 3.2
2017-Sep-10 04:30N 30°04' W 093°25'1 2.0
2017-Sep-10 04:00N 30°04' W 093°24'1 1.9
2017-Sep-10 03:30N 30°04' W 093°23'1 1.5
2017-Sep-10 03:00N 30°04' W 093°22'1 2.1
2017-Sep-10 02:31N 30°04' W 093°21'1 2.9
2017-Sep-10 02:01N 30°05' W 093°20'1 1.7
2017-Sep-10 01:31N 30°06' W 093°19'1 1.9
2017-Sep-10 01:01N 30°06' W 093°19'  
Track history (hours):
 
Tides and Currents Weather Stations Pressure Air Temp Water Temp Dewpoint Dewpoint Depression Visibility Wind Speed Wind Dir Waves Ship Positions

MV Grace

Owner: MV Cajun 3, LLC, New Orleans, LA. More information available from US FCC via Universal Licensing System and Coast Guard Vessel Documentation Center.

Last reported at 2017-Sep-20 00:31 UTC. Time now 2017-Sep-25 13:34 UTC.
Position N 29°30' W 094°52'.

Length 107 m; draft 3 m.

Type: . MMSI: 367633410.

Date/timePositionNaut miles runAvg speedWind from/ knotsBaromVisibWave heightAir tempDewpointWater temp
2017-Sep-20 00:31N 29°30' W 094°52'0 6.7
2017-Sep-20 00:28N 29°30' W 094°52'3 6.7
2017-Sep-20 00:00N 29°33' W 094°54'3 6.6
2017-Sep-19 23:30N 29°35' W 094°56'3 6.6
2017-Sep-19 23:00N 29°38' W 094°58'3 6.5
2017-Sep-19 22:31N 29°41' W 094°59'3 5.2
2017-Sep-19 21:58N 29°44' W 095°01'4 5.9
2017-Sep-19 21:20N 29°46' W 095°05'1 1.6
2017-Sep-19 20:27N 29°47' W 095°06'0 0.0
2017-Sep-18 19:18N 29°47' W 095°06'0 0.0
2017-Sep-18 17:29N 29°47' W 095°06'1 1.3
2017-Sep-18 16:28N 29°46' W 095°05'4 6.5
2017-Sep-18 15:56N 29°44' W 095°08'3 6.5
2017-Sep-18 15:30N 29°45' W 095°11'3 6.0
2017-Sep-18 14:58N 29°43' W 095°14'0 0.1
2017-Sep-18 14:31N 29°43' W 095°14'2 4.5
2017-Sep-18 13:59N 29°44' W 095°12'3 6.1
2017-Sep-18 13:30N 29°44' W 095°09'3 6.2
2017-Sep-18 13:00N 29°46' W 095°06'2 0.0
2017-Sep-17 02:17N 29°47' W 095°06'0 0.6
2017-Sep-17 02:00N 29°47' W 095°06'1 1.8
2017-Sep-17 01:28N 29°47' W 095°05'1 1.0
2017-Sep-17 00:27N 29°46' W 095°06'1 1.8
2017-Sep-16 23:49N 29°47' W 095°06'0 0.0
2017-Sep-16 08:21N 29°47' W 095°06'0 0.2
2017-Sep-16 07:59N 29°47' W 095°06'1 1.8
2017-Sep-16 07:28N 29°47' W 095°05'1 1.5
2017-Sep-16 06:55N 29°46' W 095°05'2 4.4
2017-Sep-16 06:25N 29°45' W 095°06'2 5.5
2017-Sep-16 06:00N 29°44' W 095°09'3 5.1
2017-Sep-16 05:28N 29°45' W 095°12'2 4.3
2017-Sep-16 04:59N 29°44' W 095°14'0 0.1
2017-Sep-16 04:30N 29°44' W 095°14'0 0.0
2017-Sep-16 04:00N 29°44' W 095°14'0 0.0
2017-Sep-16 03:30N 29°44' W 095°14'0 0.0
2017-Sep-16 03:00N 29°44' W 095°14'0 0.0
2017-Sep-16 02:30N 29°44' W 095°14'0 0.0
2017-Sep-16 02:00N 29°44' W 095°14'0 0.0
2017-Sep-16 01:30N 29°44' W 095°14'0 0.0
2017-Sep-16 01:00N 29°44' W 095°14'0 0.0
2017-Sep-16 00:29N 29°44' W 095°14'0 0.0
2017-Sep-16 00:00N 29°44' W 095°14'0 0.0
2017-Sep-15 23:30N 29°44' W 095°14'0 0.0
2017-Sep-15 23:00N 29°44' W 095°14'0 0.0
2017-Sep-15 22:30N 29°44' W 095°14'0 0.0
2017-Sep-15 22:00N 29°44' W 095°14'0 0.0
2017-Sep-15 21:30N 29°44' W 095°14'0 0.0
2017-Sep-15 21:00N 29°44' W 095°14'0 0.0
2017-Sep-15 20:30N 29°44' W 095°14'0 0.0
2017-Sep-15 20:00N 29°44' W 095°14'0 0.0
2017-Sep-15 19:28N 29°44' W 095°14'0 0.0
2017-Sep-15 19:00N 29°44' W 095°14'0 0.0
2017-Sep-15 18:30N 29°44' W 095°14'0 0.3
2017-Sep-15 17:25N 29°44' W 095°13'0 0.9
2017-Sep-15 17:00N 29°44' W 095°14'0 0.0
2017-Sep-15 16:30N 29°44' W 095°14'0 0.0
2017-Sep-15 16:00N 29°44' W 095°14'0 0.0
2017-Sep-15 15:28N 29°44' W 095°14'0 0.0
2017-Sep-15 14:57N 29°44' W 095°14'0 0.0
2017-Sep-15 14:28N 29°44' W 095°14'0 0.0
2017-Sep-15 14:00N 29°44' W 095°14'0 0.0
2017-Sep-15 13:30N 29°44' W 095°14'0 0.0
2017-Sep-15 12:59N 29°44' W 095°14'0 0.0
2017-Sep-15 12:30N 29°44' W 095°14'0 0.0
2017-Sep-15 12:00N 29°44' W 095°14'0 0.0
2017-Sep-15 11:30N 29°44' W 095°14'0 0.0
2017-Sep-15 10:57N 29°44' W 095°14'0 0.0
2017-Sep-15 10:30N 29°44' W 095°14'0 0.0
2017-Sep-15 10:00N 29°44' W 095°14'0 0.0
2017-Sep-15 09:30N 29°44' W 095°14'0 0.0
2017-Sep-15 09:00N 29°44' W 095°14'0 0.0
2017-Sep-15 08:30N 29°44' W 095°14'0 0.0
2017-Sep-15 08:00N 29°44' W 095°14'0 0.0
2017-Sep-15 07:30N 29°44' W 095°14'0 0.0
2017-Sep-15 07:00N 29°44' W 095°14'0 0.0
2017-Sep-15 06:30N 29°44' W 095°14'0 0.0
2017-Sep-15 06:00N 29°44' W 095°14'0 0.0
2017-Sep-15 05:30N 29°44' W 095°14'0 0.0
2017-Sep-15 05:00N 29°44' W 095°14'0 0.0
2017-Sep-15 04:29N 29°44' W 095°14'0 0.0
2017-Sep-15 04:00N 29°44' W 095°14'0 0.0
2017-Sep-15 03:30N 29°44' W 095°14'0 0.0
2017-Sep-15 03:00N 29°44' W 095°14'0 0.0
2017-Sep-15 02:30N 29°44' W 095°14'0 0.0
2017-Sep-15 02:00N 29°44' W 095°14'0 0.0
2017-Sep-15 01:30N 29°44' W 095°14'0 0.0
2017-Sep-15 01:00N 29°44' W 095°14'0 0.0
2017-Sep-14 23:31N 29°44' W 095°14'0 0.0
2017-Sep-14 23:05N 29°44' W 095°14'0 0.3
2017-Sep-14 23:00N 29°44' W 095°14'2 2.4
2017-Sep-14 22:15N 29°44' W 095°12'1 5.0
2017-Sep-14 22:00N 29°45' W 095°11'2 3.9
2017-Sep-14 21:30N 29°44' W 095°09'3 5.6
2017-Sep-14 21:00N 29°45' W 095°06'1 2.9
2017-Sep-14 20:30N 29°45' W 095°04'3 5.1
2017-Sep-14 20:00N 29°44' W 095°02'3 5.1
2017-Sep-14 19:30N 29°42' W 094°60'3 5.9
2017-Sep-14 19:00N 29°39' W 094°58'3 6.5
2017-Sep-14 18:30N 29°36' W 094°57'4 7.4
2017-Sep-14 18:00N 29°33' W 094°55'3 6.6
2017-Sep-14 17:30N 29°30' W 094°52'4 6.4
2017-Sep-14 16:56N 29°27' W 094°51'  
2017-Sep-10 09:32N 30°01' W 093°45'0 7.0
2017-Sep-10 09:29N 30°02' W 093°44'3 5.7
2017-Sep-10 09:00N 30°03' W 093°42'2 4.2
2017-Sep-10 08:30N 30°04' W 093°40'2 4.1
2017-Sep-10 07:58N 30°04' W 093°37'2 3.6
2017-Sep-10 07:31N 30°04' W 093°35'1 2.4
2017-Sep-10 07:00N 30°04' W 093°34'1 1.4
2017-Sep-10 06:31N 30°04' W 093°33'1 3.0
2017-Sep-10 06:01N 30°04' W 093°31'2 3.9
2017-Sep-10 05:29N 30°04' W 093°29'2 3.2
2017-Sep-10 05:00N 30°04' W 093°27'2 3.2
2017-Sep-10 04:30N 30°04' W 093°25'1 2.0
2017-Sep-10 04:00N 30°04' W 093°24'1 1.9
2017-Sep-10 03:30N 30°04' W 093°23'1 1.5
2017-Sep-10 03:00N 30°04' W 093°22'1 2.1
2017-Sep-10 02:31N 30°04' W 093°21'1 2.9
2017-Sep-10 02:01N 30°05' W 093°20'1 1.7
2017-Sep-10 01:31N 30°06' W 093°19'1 1.9
2017-Sep-10 01:01N 30°06' W 093°19'  

Dump ship's entire track history